sensor_id;sensor_type;location;lat;lon;timestamp;P1;durP1;ratioP1;P2;durP2;ratioP2
71665;SDS011;59503;53.486;10.196;2022-10-16T00:00:34;15.82;;;7.78;;
71665;SDS011;59503;53.486;10.196;2022-10-16T00:03:01;13.63;;;8.00;;
71665;SDS011;59503;53.486;10.196;2022-10-16T00:05:27;16.88;;;8.02;;
71665;SDS011;59503;53.486;10.196;2022-10-16T00:07:52;20.70;;;8.33;;
71665;SDS011;59503;53.486;10.196;2022-10-16T00:10:18;16.98;;;7.95;;
71665;SDS011;59503;53.486;10.196;2022-10-16T00:12:43;17.17;;;7.97;;
71665;SDS011;59503;53.486;10.196;2022-10-16T00:15:09;14.60;;;6.60;;
71665;SDS011;59503;53.486;10.196;2022-10-16T00:17:34;16.65;;;8.07;;
71665;SDS011;59503;53.486;10.196;2022-10-16T00:20:00;16.97;;;7.13;;
71665;SDS011;59503;53.486;10.196;2022-10-16T00:22:25;18.73;;;8.47;;
71665;SDS011;59503;53.486;10.196;2022-10-16T00:24:51;11.93;;;6.67;;
71665;SDS011;59503;53.486;10.196;2022-10-16T00:27:16;19.83;;;7.15;;
71665;SDS011;59503;53.486;10.196;2022-10-16T00:29:42;15.37;;;7.77;;
71665;SDS011;59503;53.486;10.196;2022-10-16T00:32:08;16.90;;;8.02;;
71665;SDS011;59503;53.486;10.196;2022-10-16T00:34:34;20.53;;;7.83;;
71665;SDS011;59503;53.486;10.196;2022-10-16T00:36:59;16.25;;;7.70;;
71665;SDS011;59503;53.486;10.196;2022-10-16T00:39:25;17.10;;;7.33;;
71665;SDS011;59503;53.486;10.196;2022-10-16T00:41:50;20.70;;;8.10;;
71665;SDS011;59503;53.486;10.196;2022-10-16T00:47:14;21.73;;;8.70;;
71665;SDS011;59503;53.486;10.196;2022-10-16T00:49:44;18.23;;;7.65;;
71665;SDS011;59503;53.486;10.196;2022-10-16T00:52:11;14.03;;;6.80;;
71665;SDS011;59503;53.486;10.196;2022-10-16T00:54:38;14.70;;;7.28;;
71665;SDS011;59503;53.486;10.196;2022-10-16T00:57:04;14.07;;;6.97;;
71665;SDS011;59503;53.486;10.196;2022-10-16T00:59:40;15.52;;;7.28;;
71665;SDS011;59503;53.486;10.196;2022-10-16T01:02:08;16.95;;;7.22;;
71665;SDS011;59503;53.486;10.196;2022-10-16T01:04:37;14.90;;;6.75;;
71665;SDS011;59503;53.486;10.196;2022-10-16T01:07:12;12.18;;;6.40;;
71665;SDS011;59503;53.486;10.196;2022-10-16T01:12:35;15.13;;;6.53;;
71665;SDS011;59503;53.486;10.196;2022-10-16T01:20:20;14.95;;;5.90;;
71665;SDS011;59503;53.486;10.196;2022-10-16T01:23:28;16.53;;;6.60;;
71665;SDS011;59503;53.486;10.196;2022-10-16T01:26:12;12.23;;;6.18;;
71665;SDS011;59503;53.486;10.196;2022-10-16T01:28:59;12.82;;;5.88;;
71665;SDS011;59503;53.486;10.196;2022-10-16T01:31:29;8.65;;;5.07;;
71665;SDS011;59503;53.486;10.196;2022-10-16T01:34:02;11.90;;;5.22;;
71665;SDS011;59503;53.486;10.196;2022-10-16T01:36:34;11.47;;;5.10;;
71665;SDS011;59503;53.486;10.196;2022-10-16T01:39:04;6.70;;;4.38;;
71665;SDS011;59503;53.486;10.196;2022-10-16T01:41:44;7.38;;;4.13;;
71665;SDS011;59503;53.486;10.196;2022-10-16T01:44:15;13.20;;;4.88;;
71665;SDS011;59503;53.486;10.196;2022-10-16T01:46:46;7.32;;;4.05;;
71665;SDS011;59503;53.486;10.196;2022-10-16T01:49:13;9.27;;;4.60;;
71665;SDS011;59503;53.486;10.196;2022-10-16T01:51:39;7.72;;;3.80;;
71665;SDS011;59503;53.486;10.196;2022-10-16T01:54:08;8.35;;;4.03;;
71665;SDS011;59503;53.486;10.196;2022-10-16T01:56:36;8.07;;;3.58;;
71665;SDS011;59503;53.486;10.196;2022-10-16T01:59:06;6.32;;;2.80;;
71665;SDS011;59503;53.486;10.196;2022-10-16T02:01:36;5.53;;;2.90;;
71665;SDS011;59503;53.486;10.196;2022-10-16T02:04:08;5.70;;;3.00;;
71665;SDS011;59503;53.486;10.196;2022-10-16T02:06:39;7.05;;;3.40;;
71665;SDS011;59503;53.486;10.196;2022-10-16T02:09:04;7.27;;;3.23;;
71665;SDS011;59503;53.486;10.196;2022-10-16T02:11:30;7.25;;;2.60;;
71665;SDS011;59503;53.486;10.196;2022-10-16T02:13:58;6.27;;;2.90;;
71665;SDS011;59503;53.486;10.196;2022-10-16T02:16:36;4.65;;;2.72;;
71665;SDS011;59503;53.486;10.196;2022-10-16T02:19:04;5.85;;;2.63;;
71665;SDS011;59503;53.486;10.196;2022-10-16T02:21:40;3.78;;;2.50;;
71665;SDS011;59503;53.486;10.196;2022-10-16T02:27:10;5.43;;;2.50;;
71665;SDS011;59503;53.486;10.196;2022-10-16T02:29:46;8.27;;;2.65;;
71665;SDS011;59503;53.486;10.196;2022-10-16T02:32:16;4.07;;;1.98;;
71665;SDS011;59503;53.486;10.196;2022-10-16T02:34:45;7.15;;;2.08;;
71665;SDS011;59503;53.486;10.196;2022-10-16T02:37:13;5.43;;;2.23;;
71665;SDS011;59503;53.486;10.196;2022-10-16T02:39:40;7.32;;;2.42;;
71665;SDS011;59503;53.486;10.196;2022-10-16T02:42:11;8.35;;;2.85;;
71665;SDS011;59503;53.486;10.196;2022-10-16T02:44:38;7.70;;;1.92;;
71665;SDS011;59503;53.486;10.196;2022-10-16T02:47:03;7.20;;;2.60;;
71665;SDS011;59503;53.486;10.196;2022-10-16T02:49:29;5.37;;;2.37;;
71665;SDS011;59503;53.486;10.196;2022-10-16T02:51:54;7.77;;;2.40;;
71665;SDS011;59503;53.486;10.196;2022-10-16T02:54:20;5.13;;;1.85;;
71665;SDS011;59503;53.486;10.196;2022-10-16T02:56:45;4.33;;;1.90;;
71665;SDS011;59503;53.486;10.196;2022-10-16T02:59:10;5.60;;;1.50;;
71665;SDS011;59503;53.486;10.196;2022-10-16T03:01:36;4.03;;;1.63;;
71665;SDS011;59503;53.486;10.196;2022-10-16T03:04:01;5.13;;;1.63;;
71665;SDS011;59503;53.486;10.196;2022-10-16T03:06:27;7.93;;;2.87;;
71665;SDS011;59503;53.486;10.196;2022-10-16T03:08:52;4.43;;;1.80;;
71665;SDS011;59503;53.486;10.196;2022-10-16T03:11:18;6.00;;;1.80;;
71665;SDS011;59503;53.486;10.196;2022-10-16T03:13:43;5.90;;;2.00;;
71665;SDS011;59503;53.486;10.196;2022-10-16T03:16:09;3.10;;;1.37;;
71665;SDS011;59503;53.486;10.196;2022-10-16T03:18:34;3.63;;;1.50;;
71665;SDS011;59503;53.486;10.196;2022-10-16T03:21:00;10.20;;;2.03;;
71665;SDS011;59503;53.486;10.196;2022-10-16T03:23:26;4.83;;;1.80;;
71665;SDS011;59503;53.486;10.196;2022-10-16T03:25:51;6.45;;;2.30;;
71665;SDS011;59503;53.486;10.196;2022-10-16T03:28:17;8.32;;;1.77;;
71665;SDS011;59503;53.486;10.196;2022-10-16T03:30:43;3.60;;;1.80;;
71665;SDS011;59503;53.486;10.196;2022-10-16T03:33:09;5.90;;;1.60;;
71665;SDS011;59503;53.486;10.196;2022-10-16T03:35:34;3.90;;;1.40;;
71665;SDS011;59503;53.486;10.196;2022-10-16T03:38:00;7.77;;;1.73;;
71665;SDS011;59503;53.486;10.196;2022-10-16T03:40:25;9.07;;;1.80;;
71665;SDS011;59503;53.486;10.196;2022-10-16T03:42:52;3.47;;;1.75;;
71665;SDS011;59503;53.486;10.196;2022-10-16T03:45:20;3.90;;;1.90;;
71665;SDS011;59503;53.486;10.196;2022-10-16T03:47:45;4.25;;;1.70;;
71665;SDS011;59503;53.486;10.196;2022-10-16T03:50:11;5.53;;;1.83;;
71665;SDS011;59503;53.486;10.196;2022-10-16T03:52:36;7.37;;;2.50;;
71665;SDS011;59503;53.486;10.196;2022-10-16T03:55:02;7.88;;;2.30;;
71665;SDS011;59503;53.486;10.196;2022-10-16T03:57:27;7.50;;;2.03;;
71665;SDS011;59503;53.486;10.196;2022-10-16T03:59:53;6.23;;;1.70;;
71665;SDS011;59503;53.486;10.196;2022-10-16T04:02:18;3.33;;;1.50;;
71665;SDS011;59503;53.486;10.196;2022-10-16T04:04:44;4.77;;;1.50;;
71665;SDS011;59503;53.486;10.196;2022-10-16T04:07:09;4.87;;;1.60;;
71665;SDS011;59503;53.486;10.196;2022-10-16T04:09:34;5.50;;;1.40;;
71665;SDS011;59503;53.486;10.196;2022-10-16T04:12:00;5.95;;;1.50;;
71665;SDS011;59503;53.486;10.196;2022-10-16T04:14:25;2.43;;;1.30;;
71665;SDS011;59503;53.486;10.196;2022-10-16T04:16:51;4.00;;;1.47;;
71665;SDS011;59503;53.486;10.196;2022-10-16T04:19:16;4.43;;;1.47;;
71665;SDS011;59503;53.486;10.196;2022-10-16T04:21:42;2.75;;;1.23;;
71665;SDS011;59503;53.486;10.196;2022-10-16T04:24:07;3.83;;;1.30;;
71665;SDS011;59503;53.486;10.196;2022-10-16T04:26:32;5.53;;;2.13;;
71665;SDS011;59503;53.486;10.196;2022-10-16T04:28:58;3.23;;;1.50;;
71665;SDS011;59503;53.486;10.196;2022-10-16T04:31:23;3.85;;;1.30;;
71665;SDS011;59503;53.486;10.196;2022-10-16T04:33:49;3.57;;;1.67;;
71665;SDS011;59503;53.486;10.196;2022-10-16T04:36:14;3.43;;;1.40;;
71665;SDS011;59503;53.486;10.196;2022-10-16T04:38:39;4.77;;;1.20;;
71665;SDS011;59503;53.486;10.196;2022-10-16T04:41:05;2.17;;;1.20;;
71665;SDS011;59503;53.486;10.196;2022-10-16T04:43:32;6.40;;;1.20;;
71665;SDS011;59503;53.486;10.196;2022-10-16T04:45:58;2.33;;;1.38;;
71665;SDS011;59503;53.486;10.196;2022-10-16T04:48:23;3.43;;;1.60;;
71665;SDS011;59503;53.486;10.196;2022-10-16T04:50:48;5.45;;;1.38;;
71665;SDS011;59503;53.486;10.196;2022-10-16T04:53:14;3.03;;;1.57;;
71665;SDS011;59503;53.486;10.196;2022-10-16T04:55:40;9.20;;;2.10;;
71665;SDS011;59503;53.486;10.196;2022-10-16T04:58:07;3.80;;;1.70;;
71665;SDS011;59503;53.486;10.196;2022-10-16T05:00:33;4.50;;;2.10;;
71665;SDS011;59503;53.486;10.196;2022-10-16T05:02:59;6.22;;;1.67;;
71665;SDS011;59503;53.486;10.196;2022-10-16T05:05:25;6.75;;;1.67;;
71665;SDS011;59503;53.486;10.196;2022-10-16T05:07:51;6.83;;;1.40;;
71665;SDS011;59503;53.486;10.196;2022-10-16T05:10:17;4.53;;;1.60;;
71665;SDS011;59503;53.486;10.196;2022-10-16T05:12:42;11.17;;;1.70;;
71665;SDS011;59503;53.486;10.196;2022-10-16T05:15:08;4.18;;;1.42;;
71665;SDS011;59503;53.486;10.196;2022-10-16T05:17:34;5.17;;;1.67;;
71665;SDS011;59503;53.486;10.196;2022-10-16T05:19:59;8.20;;;1.65;;
71665;SDS011;59503;53.486;10.196;2022-10-16T05:22:24;5.40;;;2.10;;
71665;SDS011;59503;53.486;10.196;2022-10-16T05:24:50;5.80;;;2.27;;
71665;SDS011;59503;53.486;10.196;2022-10-16T05:27:15;5.47;;;1.97;;
71665;SDS011;59503;53.486;10.196;2022-10-16T05:29:45;4.65;;;1.70;;
71665;SDS011;59503;53.486;10.196;2022-10-16T05:32:12;5.70;;;1.60;;
71665;SDS011;59503;53.486;10.196;2022-10-16T05:34:38;3.67;;;1.60;;
71665;SDS011;59503;53.486;10.196;2022-10-16T05:37:04;7.30;;;1.60;;
71665;SDS011;59503;53.486;10.196;2022-10-16T05:39:30;9.18;;;1.70;;
71665;SDS011;59503;53.486;10.196;2022-10-16T05:41:55;5.87;;;1.93;;
71665;SDS011;59503;53.486;10.196;2022-10-16T05:44:20;4.30;;;1.70;;
71665;SDS011;59503;53.486;10.196;2022-10-16T05:46:46;4.70;;;1.70;;
71665;SDS011;59503;53.486;10.196;2022-10-16T05:49:12;9.00;;;2.40;;
71665;SDS011;59503;53.486;10.196;2022-10-16T05:51:37;8.20;;;1.90;;
71665;SDS011;59503;53.486;10.196;2022-10-16T05:54:02;9.17;;;2.10;;
71665;SDS011;59503;53.486;10.196;2022-10-16T05:56:28;7.63;;;1.90;;
71665;SDS011;59503;53.486;10.196;2022-10-16T05:58:54;5.07;;;1.67;;
71665;SDS011;59503;53.486;10.196;2022-10-16T06:01:19;4.10;;;1.80;;
71665;SDS011;59503;53.486;10.196;2022-10-16T06:03:49;4.53;;;1.90;;
71665;SDS011;59503;53.486;10.196;2022-10-16T06:06:19;7.20;;;2.05;;
71665;SDS011;59503;53.486;10.196;2022-10-16T06:08:47;3.38;;;1.75;;
71665;SDS011;59503;53.486;10.196;2022-10-16T06:11:18;5.78;;;1.67;;
71665;SDS011;59503;53.486;10.196;2022-10-16T06:13:45;7.22;;;2.20;;
71665;SDS011;59503;53.486;10.196;2022-10-16T06:16:14;10.93;;;2.17;;
71665;SDS011;59503;53.486;10.196;2022-10-16T06:18:40;8.00;;;2.05;;
71665;SDS011;59503;53.486;10.196;2022-10-16T06:21:09;8.60;;;3.07;;
71665;SDS011;59503;53.486;10.196;2022-10-16T06:23:39;9.32;;;2.53;;
71665;SDS011;59503;53.486;10.196;2022-10-16T06:26:16;7.17;;;2.33;;
71665;SDS011;59503;53.486;10.196;2022-10-16T06:28:44;4.97;;;1.85;;
71665;SDS011;59503;53.486;10.196;2022-10-16T06:31:10;4.00;;;2.03;;
71665;SDS011;59503;53.486;10.196;2022-10-16T06:33:36;4.45;;;1.88;;
71665;SDS011;59503;53.486;10.196;2022-10-16T06:36:06;6.03;;;1.90;;
71665;SDS011;59503;53.486;10.196;2022-10-16T06:38:37;6.72;;;2.20;;
71665;SDS011;59503;53.486;10.196;2022-10-16T06:41:03;6.32;;;2.60;;
71665;SDS011;59503;53.486;10.196;2022-10-16T06:43:30;7.47;;;2.73;;
71665;SDS011;59503;53.486;10.196;2022-10-16T06:46:00;7.40;;;3.00;;
71665;SDS011;59503;53.486;10.196;2022-10-16T06:48:26;6.68;;;2.70;;
71665;SDS011;59503;53.486;10.196;2022-10-16T06:53:29;6.40;;;2.35;;
71665;SDS011;59503;53.486;10.196;2022-10-16T06:55:56;8.17;;;2.30;;
71665;SDS011;59503;53.486;10.196;2022-10-16T06:58:22;9.70;;;2.75;;
71665;SDS011;59503;53.486;10.196;2022-10-16T07:00:48;6.18;;;2.95;;
71665;SDS011;59503;53.486;10.196;2022-10-16T07:03:14;15.63;;;3.60;;
71665;SDS011;59503;53.486;10.196;2022-10-16T07:05:40;8.25;;;3.20;;
71665;SDS011;59503;53.486;10.196;2022-10-16T07:08:07;9.68;;;3.28;;
71665;SDS011;59503;53.486;10.196;2022-10-16T07:10:33;9.33;;;3.43;;
71665;SDS011;59503;53.486;10.196;2022-10-16T07:12:59;6.20;;;2.95;;
71665;SDS011;59503;53.486;10.196;2022-10-16T07:15:25;8.30;;;2.47;;
71665;SDS011;59503;53.486;10.196;2022-10-16T07:17:51;7.57;;;2.93;;
71665;SDS011;59503;53.486;10.196;2022-10-16T07:20:16;4.55;;;2.40;;
71665;SDS011;59503;53.486;10.196;2022-10-16T07:22:42;5.65;;;2.50;;
71665;SDS011;59503;53.486;10.196;2022-10-16T07:25:08;5.87;;;2.30;;
71665;SDS011;59503;53.486;10.196;2022-10-16T07:27:33;6.50;;;2.20;;
71665;SDS011;59503;53.486;10.196;2022-10-16T07:29:59;11.17;;;2.80;;
71665;SDS011;59503;53.486;10.196;2022-10-16T07:32:24;5.75;;;2.53;;
71665;SDS011;59503;53.486;10.196;2022-10-16T07:34:51;5.90;;;2.47;;
71665;SDS011;59503;53.486;10.196;2022-10-16T07:37:17;8.33;;;2.90;;
71665;SDS011;59503;53.486;10.196;2022-10-16T07:39:42;7.88;;;2.35;;
71665;SDS011;59503;53.486;10.196;2022-10-16T07:42:07;8.03;;;2.50;;
71665;SDS011;59503;53.486;10.196;2022-10-16T07:44:33;6.87;;;2.03;;
71665;SDS011;59503;53.486;10.196;2022-10-16T07:46:58;4.63;;;1.77;;
71665;SDS011;59503;53.486;10.196;2022-10-16T07:49:24;7.13;;;2.00;;
71665;SDS011;59503;53.486;10.196;2022-10-16T07:51:49;6.00;;;1.73;;
71665;SDS011;59503;53.486;10.196;2022-10-16T07:54:15;5.83;;;1.93;;
71665;SDS011;59503;53.486;10.196;2022-10-16T07:56:40;8.50;;;1.53;;
71665;SDS011;59503;53.486;10.196;2022-10-16T07:59:06;6.10;;;1.90;;
71665;SDS011;59503;53.486;10.196;2022-10-16T08:01:31;3.97;;;1.80;;
71665;SDS011;59503;53.486;10.196;2022-10-16T08:03:57;3.10;;;1.70;;
71665;SDS011;59503;53.486;10.196;2022-10-16T08:06:22;5.07;;;1.65;;
71665;SDS011;59503;53.486;10.196;2022-10-16T08:08:48;3.43;;;1.70;;
71665;SDS011;59503;53.486;10.196;2022-10-16T08:11:13;4.22;;;1.65;;
71665;SDS011;59503;53.486;10.196;2022-10-16T08:13:40;4.33;;;1.67;;
71665;SDS011;59503;53.486;10.196;2022-10-16T08:16:06;6.88;;;1.65;;
71665;SDS011;59503;53.486;10.196;2022-10-16T08:18:36;6.68;;;1.85;;
71665;SDS011;59503;53.486;10.196;2022-10-16T08:21:03;3.63;;;1.55;;
71665;SDS011;59503;53.486;10.196;2022-10-16T08:23:30;5.47;;;1.80;;
71665;SDS011;59503;53.486;10.196;2022-10-16T08:25:56;2.37;;;1.70;;
71665;SDS011;59503;53.486;10.196;2022-10-16T08:28:28;3.67;;;1.90;;
71665;SDS011;59503;53.486;10.196;2022-10-16T08:30:53;5.67;;;1.60;;
71665;SDS011;59503;53.486;10.196;2022-10-16T08:33:19;3.10;;;1.60;;
71665;SDS011;59503;53.486;10.196;2022-10-16T08:35:51;2.93;;;1.37;;
71665;SDS011;59503;53.486;10.196;2022-10-16T08:38:18;4.53;;;1.50;;
71665;SDS011;59503;53.486;10.196;2022-10-16T08:40:44;4.78;;;1.30;;
71665;SDS011;59503;53.486;10.196;2022-10-16T08:51:24;2.50;;;1.08;;
71665;SDS011;59503;53.486;10.196;2022-10-16T08:54:01;3.93;;;1.10;;
71665;SDS011;59503;53.486;10.196;2022-10-16T08:56:29;4.32;;;1.10;;
71665;SDS011;59503;53.486;10.196;2022-10-16T08:58:55;3.75;;;1.48;;
71665;SDS011;59503;53.486;10.196;2022-10-16T09:01:24;5.68;;;1.30;;
71665;SDS011;59503;53.486;10.196;2022-10-16T09:09:43;4.83;;;1.33;;
71665;SDS011;59503;53.486;10.196;2022-10-16T09:12:36;1.90;;;0.85;;
71665;SDS011;59503;53.486;10.196;2022-10-16T09:20:44;2.25;;;1.10;;
71665;SDS011;59503;53.486;10.196;2022-10-16T09:23:30;5.67;;;1.10;;
71665;SDS011;59503;53.486;10.196;2022-10-16T09:25:59;4.18;;;1.00;;
71665;SDS011;59503;53.486;10.196;2022-10-16T09:28:25;5.50;;;1.15;;
71665;SDS011;59503;53.486;10.196;2022-10-16T09:30:50;1.90;;;0.87;;
71665;SDS011;59503;53.486;10.196;2022-10-16T09:33:17;1.63;;;1.13;;
71665;SDS011;59503;53.486;10.196;2022-10-16T09:35:54;5.38;;;1.10;;
71665;SDS011;59503;53.486;10.196;2022-10-16T09:40:53;6.53;;;1.15;;
71665;SDS011;59503;53.486;10.196;2022-10-16T09:45:56;2.30;;;0.90;;
71665;SDS011;59503;53.486;10.196;2022-10-16T09:48:25;4.30;;;1.30;;
71665;SDS011;59503;53.486;10.196;2022-10-16T09:51:00;2.58;;;1.00;;
71665;SDS011;59503;53.486;10.196;2022-10-16T09:53:41;4.95;;;0.80;;
71665;SDS011;59503;53.486;10.196;2022-10-16T09:56:09;3.60;;;0.90;;
71665;SDS011;59503;53.486;10.196;2022-10-16T09:58:41;5.17;;;0.80;;
71665;SDS011;59503;53.486;10.196;2022-10-16T10:01:11;2.85;;;0.80;;
71665;SDS011;59503;53.486;10.196;2022-10-16T10:03:40;6.03;;;0.80;;
71665;SDS011;59503;53.486;10.196;2022-10-16T10:06:17;2.40;;;0.57;;
71665;SDS011;59503;53.486;10.196;2022-10-16T10:14:15;2.45;;;0.90;;
71665;SDS011;59503;53.486;10.196;2022-10-16T10:16:43;2.00;;;0.70;;
71665;SDS011;59503;53.486;10.196;2022-10-16T10:19:13;4.80;;;0.90;;
71665;SDS011;59503;53.486;10.196;2022-10-16T10:21:40;1.25;;;0.82;;
71665;SDS011;59503;53.486;10.196;2022-10-16T10:24:09;3.28;;;0.70;;
71665;SDS011;59503;53.486;10.196;2022-10-16T10:26:37;3.55;;;0.52;;
71665;SDS011;59503;53.486;10.196;2022-10-16T10:32:05;2.50;;;0.50;;
71665;SDS011;59503;53.486;10.196;2022-10-16T10:34:58;1.80;;;0.60;;
71665;SDS011;59503;53.486;10.196;2022-10-16T10:43:04;4.07;;;0.63;;
71665;SDS011;59503;53.486;10.196;2022-10-16T10:45:50;2.67;;;0.53;;
71665;SDS011;59503;53.486;10.196;2022-10-16T10:51:10;3.05;;;0.68;;
71665;SDS011;59503;53.486;10.196;2022-10-16T10:53:47;3.63;;;0.68;;
71665;SDS011;59503;53.486;10.196;2022-10-16T10:56:40;3.15;;;0.52;;
71665;SDS011;59503;53.486;10.196;2022-10-16T11:01:54;2.92;;;0.70;;
71665;SDS011;59503;53.486;10.196;2022-10-16T11:07:09;3.75;;;0.60;;
71665;SDS011;59503;53.486;10.196;2022-10-16T11:09:49;3.53;;;0.75;;
71665;SDS011;59503;53.486;10.196;2022-10-16T11:13:04;6.27;;;0.50;;
71665;SDS011;59503;53.486;10.196;2022-10-16T11:15:17;3.83;;;0.60;;
71665;SDS011;59503;53.486;10.196;2022-10-16T11:17:54;3.55;;;0.75;;
71665;SDS011;59503;53.486;10.196;2022-10-16T11:20:34;2.45;;;0.60;;
71665;SDS011;59503;53.486;10.196;2022-10-16T11:23:08;5.18;;;0.65;;
71665;SDS011;59503;53.486;10.196;2022-10-16T11:25:41;3.63;;;0.63;;
71665;SDS011;59503;53.486;10.196;2022-10-16T11:28:13;7.00;;;1.13;;
71665;SDS011;59503;53.486;10.196;2022-10-16T11:30:43;3.70;;;0.50;;
71665;SDS011;59503;53.486;10.196;2022-10-16T11:40:53;3.50;;;0.50;;
71665;SDS011;59503;53.486;10.196;2022-10-16T11:43:32;2.65;;;0.70;;
71665;SDS011;59503;53.486;10.196;2022-10-16T11:46:15;4.47;;;0.50;;
71665;SDS011;59503;53.486;10.196;2022-10-16T11:48:48;2.45;;;0.50;;
71665;SDS011;59503;53.486;10.196;2022-10-16T11:53:45;1.77;;;0.55;;
71665;SDS011;59503;53.486;10.196;2022-10-16T11:56:19;2.07;;;0.47;;
71665;SDS011;59503;53.486;10.196;2022-10-16T12:04:21;4.50;;;0.77;;
71665;SDS011;59503;53.486;10.196;2022-10-16T12:07:20;5.97;;;0.50;;
71665;SDS011;59503;53.486;10.196;2022-10-16T12:09:49;2.47;;;0.53;;
71665;SDS011;59503;53.486;10.196;2022-10-16T12:12:25;3.05;;;0.60;;
71665;SDS011;59503;53.486;10.196;2022-10-16T12:15:48;4.03;;;0.50;;
71665;SDS011;59503;53.486;10.196;2022-10-16T12:17:53;3.25;;;0.60;;
71665;SDS011;59503;53.486;10.196;2022-10-16T12:22:49;1.88;;;0.60;;
71665;SDS011;59503;53.486;10.196;2022-10-16T12:25:35;1.33;;;0.52;;
71665;SDS011;59503;53.486;10.196;2022-10-16T12:28:06;4.47;;;0.55;;
71665;SDS011;59503;53.486;10.196;2022-10-16T12:30:43;2.22;;;0.47;;
71665;SDS011;59503;53.486;10.196;2022-10-16T12:33:22;3.37;;;0.57;;
71665;SDS011;59503;53.486;10.196;2022-10-16T12:35:50;3.78;;;0.55;;
71665;SDS011;59503;53.486;10.196;2022-10-16T12:38:26;5.15;;;0.47;;
71665;SDS011;59503;53.486;10.196;2022-10-16T12:41:00;1.77;;;0.52;;
71665;SDS011;59503;53.486;10.196;2022-10-16T12:48:35;3.13;;;0.70;;
71665;SDS011;59503;53.486;10.196;2022-10-16T13:07:50;4.07;;;0.85;;
71665;SDS011;59503;53.486;10.196;2022-10-16T13:13:09;6.93;;;0.80;;
71665;SDS011;59503;53.486;10.196;2022-10-16T13:18:42;3.15;;;0.50;;
71665;SDS011;59503;53.486;10.196;2022-10-16T13:21:31;4.03;;;0.70;;
71665;SDS011;59503;53.486;10.196;2022-10-16T13:27:41;3.67;;;0.70;;
71665;SDS011;59503;53.486;10.196;2022-10-16T13:29:53;2.30;;;0.40;;
71665;SDS011;59503;53.486;10.196;2022-10-16T13:32:26;3.67;;;0.52;;
71665;SDS011;59503;53.486;10.196;2022-10-16T13:34:52;3.33;;;0.75;;
71665;SDS011;59503;53.486;10.196;2022-10-16T13:37:20;7.68;;;0.60;;
71665;SDS011;59503;53.486;10.196;2022-10-16T13:39:50;2.35;;;0.60;;
71665;SDS011;59503;53.486;10.196;2022-10-16T13:42:28;5.17;;;0.60;;
71665;SDS011;59503;53.486;10.196;2022-10-16T13:44:55;1.48;;;0.52;;
71665;SDS011;59503;53.486;10.196;2022-10-16T13:47:22;4.30;;;0.93;;
71665;SDS011;59503;53.486;10.196;2022-10-16T13:52:44;3.42;;;0.50;;
71665;SDS011;59503;53.486;10.196;2022-10-16T13:55:10;2.87;;;0.50;;
71665;SDS011;59503;53.486;10.196;2022-10-16T13:57:37;6.35;;;0.80;;
71665;SDS011;59503;53.486;10.196;2022-10-16T14:00:03;2.15;;;0.70;;
71665;SDS011;59503;53.486;10.196;2022-10-16T14:02:43;3.57;;;0.60;;
71665;SDS011;59503;53.486;10.196;2022-10-16T14:05:09;6.10;;;0.60;;
71665;SDS011;59503;53.486;10.196;2022-10-16T14:07:35;5.90;;;0.70;;
71665;SDS011;59503;53.486;10.196;2022-10-16T14:10:05;9.05;;;0.73;;
71665;SDS011;59503;53.486;10.196;2022-10-16T14:12:43;3.87;;;0.70;;
71665;SDS011;59503;53.486;10.196;2022-10-16T14:15:16;3.13;;;0.60;;
71665;SDS011;59503;53.486;10.196;2022-10-16T14:17:43;4.97;;;0.85;;
71665;SDS011;59503;53.486;10.196;2022-10-16T14:20:14;1.83;;;0.40;;
71665;SDS011;59503;53.486;10.196;2022-10-16T14:22:41;4.03;;;0.70;;
71665;SDS011;59503;53.486;10.196;2022-10-16T14:28:23;4.60;;;0.80;;
71665;SDS011;59503;53.486;10.196;2022-10-16T14:30:53;3.30;;;0.60;;
71665;SDS011;59503;53.486;10.196;2022-10-16T14:38:31;2.78;;;0.77;;
71665;SDS011;59503;53.486;10.196;2022-10-16T14:40:58;4.43;;;0.77;;
71665;SDS011;59503;53.486;10.196;2022-10-16T14:43:28;4.22;;;0.60;;
71665;SDS011;59503;53.486;10.196;2022-10-16T14:45:58;2.77;;;0.77;;
71665;SDS011;59503;53.486;10.196;2022-10-16T14:48:25;3.65;;;0.70;;
71665;SDS011;59503;53.486;10.196;2022-10-16T14:50:50;4.57;;;1.10;;
71665;SDS011;59503;53.486;10.196;2022-10-16T14:53:16;4.50;;;1.00;;
71665;SDS011;59503;53.486;10.196;2022-10-16T14:55:41;3.50;;;1.00;;
71665;SDS011;59503;53.486;10.196;2022-10-16T14:58:10;7.45;;;1.65;;
71665;SDS011;59503;53.486;10.196;2022-10-16T15:00:40;3.88;;;0.73;;
71665;SDS011;59503;53.486;10.196;2022-10-16T15:03:05;11.87;;;5.30;;
71665;SDS011;59503;53.486;10.196;2022-10-16T15:05:31;19.57;;;8.60;;
71665;SDS011;59503;53.486;10.196;2022-10-16T15:07:57;5.72;;;1.65;;
71665;SDS011;59503;53.486;10.196;2022-10-16T15:10:23;4.77;;;1.00;;
71665;SDS011;59503;53.486;10.196;2022-10-16T15:12:50;4.95;;;0.90;;
71665;SDS011;59503;53.486;10.196;2022-10-16T15:15:31;5.07;;;1.10;;
71665;SDS011;59503;53.486;10.196;2022-10-16T15:18:02;3.92;;;0.60;;
71665;SDS011;59503;53.486;10.196;2022-10-16T15:20:30;3.30;;;1.42;;
71665;SDS011;59503;53.486;10.196;2022-10-16T15:22:58;6.00;;;0.80;;
71665;SDS011;59503;53.486;10.196;2022-10-16T15:28:00;3.77;;;0.67;;
71665;SDS011;59503;53.486;10.196;2022-10-16T15:30:26;6.72;;;0.93;;
71665;SDS011;59503;53.486;10.196;2022-10-16T15:32:52;4.32;;;0.90;;
71665;SDS011;59503;53.486;10.196;2022-10-16T15:35:17;5.83;;;1.13;;
71665;SDS011;59503;53.486;10.196;2022-10-16T15:37:43;3.85;;;0.80;;
71665;SDS011;59503;53.486;10.196;2022-10-16T15:40:09;3.57;;;0.70;;
71665;SDS011;59503;53.486;10.196;2022-10-16T15:42:35;2.83;;;0.80;;
71665;SDS011;59503;53.486;10.196;2022-10-16T15:45:00;3.07;;;0.80;;
71665;SDS011;59503;53.486;10.196;2022-10-16T15:47:26;1.83;;;0.60;;
71665;SDS011;59503;53.486;10.196;2022-10-16T15:49:51;4.63;;;0.70;;
71665;SDS011;59503;53.486;10.196;2022-10-16T15:52:17;4.27;;;1.13;;
71665;SDS011;59503;53.486;10.196;2022-10-16T15:54:43;4.70;;;0.83;;
71665;SDS011;59503;53.486;10.196;2022-10-16T15:57:08;3.13;;;1.00;;
71665;SDS011;59503;53.486;10.196;2022-10-16T15:59:34;6.40;;;1.07;;
71665;SDS011;59503;53.486;10.196;2022-10-16T16:01:59;6.63;;;1.27;;
71665;SDS011;59503;53.486;10.196;2022-10-16T16:04:24;4.93;;;0.73;;
71665;SDS011;59503;53.486;10.196;2022-10-16T16:06:50;2.95;;;0.82;;
71665;SDS011;59503;53.486;10.196;2022-10-16T16:09:16;3.73;;;0.53;;
71665;SDS011;59503;53.486;10.196;2022-10-16T16:11:42;4.80;;;0.70;;
71665;SDS011;59503;53.486;10.196;2022-10-16T16:14:10;3.53;;;0.85;;
71665;SDS011;59503;53.486;10.196;2022-10-16T16:16:38;3.25;;;0.80;;
71665;SDS011;59503;53.486;10.196;2022-10-16T16:19:04;4.90;;;0.80;;
71665;SDS011;59503;53.486;10.196;2022-10-16T16:21:31;2.92;;;0.82;;
71665;SDS011;59503;53.486;10.196;2022-10-16T16:23:57;2.00;;;0.82;;
71665;SDS011;59503;53.486;10.196;2022-10-16T16:26:29;4.53;;;0.70;;
71665;SDS011;59503;53.486;10.196;2022-10-16T16:29:01;3.60;;;0.50;;
71665;SDS011;59503;53.486;10.196;2022-10-16T16:31:28;4.30;;;1.20;;
71665;SDS011;59503;53.486;10.196;2022-10-16T16:33:55;4.18;;;1.10;;
71665;SDS011;59503;53.486;10.196;2022-10-16T16:36:22;4.03;;;1.30;;
71665;SDS011;59503;53.486;10.196;2022-10-16T16:38:48;3.38;;;1.20;;
71665;SDS011;59503;53.486;10.196;2022-10-16T16:41:20;5.47;;;1.43;;
71665;SDS011;59503;53.486;10.196;2022-10-16T16:43:48;6.90;;;2.40;;
71665;SDS011;59503;53.486;10.196;2022-10-16T16:46:16;4.60;;;2.17;;
71665;SDS011;59503;53.486;10.196;2022-10-16T16:48:42;6.47;;;2.53;;